Dades meteomassalio
Diari Summary for Gener 22, 2017 Units:  Metric    English   Both
« Previous Day
Next Day »
Diari Semanal Mensual Anual Personalitzat
  Maxima: Minima: Mijana:
Temperatura: 7.5 °C 4.9 °C 6.3 °C
Rosada: 4.3 °C 1.7 °C 3 °C
Humitat: 90 % 68 % 80 %
Velocitat del vent: 27.8 km/h 0.0 km/h 6.2 km/h
Racha vent: 27.8 km/h - -
Vent:- - WNW
Pressio: 1020.2 hPa 1017.5 hPa -
Pluja: 2.3 mm    
Historical Graphs
 
 
Tabular Data for Gener 22, 2017
Time Temperature Dew Point Pressure Wind Wind Speed Wind Gust Humidity Rainfall Rate (Hourly) solar Conditions
00:03 6.5 °C 3.5 °C 1019.2 hPa Calm     81 % 0.0 mm 0.0 W/m2 CLR
00:08 6.5 °C 3.5 °C 1019.2 hPa Calm     81 % 0.0 mm 0.0 W/m2 CLR
00:13 6.4 °C 3.4 °C 1019.2 hPa Calm     81 % 0.0 mm 0.0 W/m2 CLR
00:18 6.2 °C 3.4 °C 1019.2 hPa Calm     82 % 0.0 mm 0.0 W/m2 CLR
00:23 6.0 °C 3.5 °C 1019.5 hPa Calm     84 % 0.0 mm 0.0 W/m2 CLR
00:28 5.8 °C 3.3 °C 1019.5 hPa Calm     84 % 0.0 mm 0.0 W/m2 CLR
00:33 5.7 °C 3.4 °C 1019.5 hPa Calm     85 % 0.0 mm 0.0 W/m2 CLR
00:38 5.6 °C 3.4 °C 1019.5 hPa Calm     86 % 0.0 mm 0.0 W/m2 CLR
00:43 5.6 °C 3.4 °C 1019.5 hPa Calm     86 % 0.0 mm 0.0 W/m2 CLR
00:48 5.6 °C 3.4 °C 1019.2 hPa Calm     86 % 0.0 mm 0.0 W/m2 CLR
00:53 5.8 °C 3.7 °C 1019.2 hPa Calm     86 % 0.0 mm 0.0 W/m2 CLR
00:58 6.1 °C 3.7 °C 1018.8 hPa West 3.7 km/h 3.7 km/h 85 % 0.0 mm 0.0 W/m2 CLR
01:03 6.1 °C 3.6 °C 1018.8 hPa Calm     84 % 0.0 mm 0.0 W/m2 CLR
01:08 6.1 °C 3.7 °C 1018.8 hPa Calm     85 % 0.0 mm 0.0 W/m2 CLR
01:13 6.1 °C 3.6 °C 1018.8 hPa Calm     84 % 0.0 mm 0.0 W/m2 CLR
01:18 6.1 °C 3.6 °C 1018.8 hPa Calm     84 % 0.0 mm 0.0 W/m2 CLR
01:23 6.0 °C 3.7 °C 1018.8 hPa Calm     85 % 0.0 mm 0.0 W/m2 CLR
01:28 6.1 °C 3.7 °C 1018.5 hPa WNW 13.0 km/h 13.0 km/h 85 % 0.0 mm 0.0 W/m2 CLR
01:33 6.5 °C 3.8 °C 1018.5 hPa WNW 17.7 km/h 17.7 km/h 83 % 0.0 mm 0.0 W/m2 CLR
01:38 6.9 °C 3.7 °C 1018.5 hPa WNW 16.7 km/h 16.7 km/h 80 % 0.0 mm 0.0 W/m2 CLR
01:43 7.2 °C 3.8 °C 1018.5 hPa West 20.9 km/h 20.9 km/h 79 % 0.0 mm 0.0 W/m2 CLR
01:48 7.2 °C 3.7 °C 1018.5 hPa West 14.8 km/h 14.8 km/h 78 % 0.0 mm 0.0 W/m2 CLR
01:53 7.1 °C 3.6 °C 1018.2 hPa West 16.7 km/h 16.7 km/h 78 % 0.0 mm 0.0 W/m2 CLR
01:58 7.1 °C 3.5 °C 1018.2 hPa West 18.5 km/h 18.5 km/h 78 % 0.0 mm 0.0 W/m2 CLR
02:03 7.0 °C 3.4 °C 1018.2 hPa West 16.7 km/h 16.7 km/h 78 % 0.0 mm 0.0 W/m2 CLR
02:08 7.0 °C 3.2 °C 1018.2 hPa West 9.3 km/h 9.3 km/h 77 % 0.0 mm 0.0 W/m2 CLR
02:13 6.9 °C 3.3 °C 1018.2 hPa WSW 6.4 km/h 6.4 km/h 78 % 0.0 mm 0.0 W/m2 CLR
02:18 6.7 °C 3.3 °C 1018.5 hPa WSW 8.0 km/h 8.0 km/h 79 % 0.0 mm 0.0 W/m2 CLR
02:23 6.6 °C 3.2 °C 1018.2 hPa WSW 7.4 km/h 7.4 km/h 79 % 0.0 mm 0.0 W/m2 CLR
02:28 6.7 °C 3.3 °C 1018.2 hPa West 7.4 km/h 7.4 km/h 79 % 0.0 mm 0.0 W/m2 CLR
02:33 6.7 °C 3.2 °C 1018.2 hPa West 16.7 km/h 16.7 km/h 78 % 0.0 mm 0.0 W/m2 CLR
02:38 6.8 °C 3.2 °C 1018.2 hPa West 14.8 km/h 14.8 km/h 78 % 0.0 mm 0.0 W/m2 CLR
02:43 6.7 °C 3.2 °C 1018.5 hPa Calm     78 % 0.0 mm 0.0 W/m2 CLR
02:48 6.6 °C 3.2 °C 1018.2 hPa Calm     79 % 0.0 mm 0.0 W/m2 CLR
02:53 6.4 °C 3.2 °C 1018.2 hPa SW 7.4 km/h 7.4 km/h 80 % 0.0 mm 0.0 W/m2 CLR
02:58 6.3 °C 3.1 °C 1018.2 hPa West 9.3 km/h 9.3 km/h 80 % 0.0 mm 0.0 W/m2 CLR
03:03 6.3 °C 2.9 °C 1018.5 hPa Calm     79 % 0.0 mm 0.0 W/m2 CLR
03:08 6.3 °C 3.1 °C 1018.2 hPa Calm     80 % 0.0 mm 0.0 W/m2 CLR
03:13 6.3 °C 3.1 °C 1018.2 hPa Calm     80 % 0.0 mm 0.0 W/m2 CLR
03:18 6.2 °C 3.0 °C 1018.2 hPa Calm     80 % 0.0 mm 0.0 W/m2 CLR
03:23 6.2 °C 3.0 °C 1018.2 hPa SW 1.6 km/h 1.6 km/h 80 % 0.0 mm 0.0 W/m2 CLR
03:28 6.2 °C 2.9 °C 1018.2 hPa SW 8.0 km/h 8.0 km/h 80 % 0.0 mm 0.0 W/m2 CLR
03:33 6.1 °C 2.9 °C 1018.2 hPa Calm     80 % 0.0 mm 0.0 W/m2 CLR
03:38 6.1 °C 2.7 °C 1018.2 hPa Calm     79 % 0.0 mm 0.0 W/m2 CLR
03:43 6.1 °C 2.7 °C 1018.2 hPa WSW 12.9 km/h 12.9 km/h 79 % 0.0 mm 0.0 W/m2 CLR
03:48 6.1 °C 2.6 °C 1018.2 hPa WSW 14.8 km/h 14.8 km/h 78 % 0.0 mm 0.0 W/m2 CLR
03:53 6.2 °C 2.3 °C 1017.8 hPa WSW 20.4 km/h 20.4 km/h 76 % 0.0 mm 0.0 W/m2 CLR
03:58 6.3 °C 2.4 °C 1018.2 hPa WSW 20.4 km/h 20.4 km/h 76 % 0.0 mm 0.0 W/m2 CLR
04:03 6.3 °C 2.2 °C 1018.2 hPa WSW 18.5 km/h 18.5 km/h 75 % 0.0 mm 0.0 W/m2 CLR
04:08 6.5 °C 2.0 °C 1017.8 hPa West 27.8 km/h 27.8 km/h 73 % 0.0 mm 0.0 W/m2 CLR
04:13 6.6 °C 2.2 °C 1017.8 hPa West 18.5 km/h 18.5 km/h 74 % 0.0 mm 0.0 W/m2 CLR
04:18 6.4 °C 2.3 °C 1017.8 hPa West 25.9 km/h 25.9 km/h 75 % 0.3 mm 0.0 W/m2 RA
04:23 6.5 °C 2.0 °C 1017.8 hPa WSW 27.8 km/h 27.8 km/h 73 % 0.3 mm 0.0 W/m2 CLR
04:28 6.6 °C 1.9 °C 1017.8 hPa West 16.7 km/h 16.7 km/h 72 % 0.3 mm 0.0 W/m2 CLR
04:33 6.7 °C 2.0 °C 1018.2 hPa West 16.7 km/h 16.7 km/h 72 % 0.3 mm 0.0 W/m2 CLR
04:38 6.6 °C 1.9 °C 1018.2 hPa Calm     72 % 0.3 mm 0.0 W/m2 CLR
04:43 6.6 °C 2.1 °C 1018.5 hPa Calm     73 % 0.3 mm 0.0 W/m2 CLR
04:48 6.4 °C 2.3 °C 1018.5 hPa Calm     75 % 0.3 mm 0.0 W/m2 CLR
04:53 6.3 °C 2.2 °C 1018.2 hPa Calm     75 % 0.3 mm 0.0 W/m2 CLR
04:58 6.2 °C 2.1 °C 1018.2 hPa NNW 7.4 km/h 7.4 km/h 75 % 0.3 mm 0.0 W/m2 CLR
05:03 6.1 °C 2.2 °C 1018.2 hPa WSW 7.4 km/h 7.4 km/h 76 % 0.3 mm 0.0 W/m2 CLR
05:08 6.2 °C 2.2 °C 1018.2 hPa WSW 11.1 km/h 11.1 km/h 76 % 0.3 mm 0.0 W/m2 CLR
05:13 6.1 °C 2.2 °C 1018.2 hPa Calm     76 % 0.3 mm 0.0 W/m2 CLR
05:18 6.0 °C 2.4 °C 1018.2 hPa Calm     78 % 0.0 mm 0.0 W/m2 CLR
05:23 5.9 °C 2.3 °C 1017.8 hPa Calm     78 % 0.0 mm 0.0 W/m2 CLR
05:28 5.8 °C 2.4 °C 1017.8 hPa Calm     79 % 0.0 mm 0.0 W/m2 CLR
05:33 5.7 °C 2.6 °C 1017.8 hPa Calm     80 % 0.3 mm 0.0 W/m2 RA
05:38 5.7 °C 2.8 °C 1017.8 hPa Calm     82 % 0.3 mm 0.0 W/m2
05:43 5.6 °C 2.7 °C 1017.8 hPa Calm     82 % 0.3 mm 0.0 W/m2 CLR
05:48 5.5 °C 2.8 °C 1017.8 hPa Calm     83 % 0.3 mm 0.0 W/m2 CLR
05:53 5.6 °C 3.1 °C 1017.8 hPa Calm     84 % 0.3 mm 0.0 W/m2 CLR
05:58 5.4 °C 2.9 °C 1017.8 hPa Calm     84 % 0.3 mm 0.0 W/m2 CLR
06:03 5.3 °C 2.9 °C 1018.2 hPa Calm     85 % 0.3 mm 0.0 W/m2 CLR
06:08 5.3 °C 3.1 °C 1018.2 hPa Calm     86 % 0.3 mm 0.0 W/m2 CLR
06:13 5.2 °C 3.1 °C 1018.2 hPa Calm     86 % 0.3 mm 0.0 W/m2 CLR
06:18 5.2 °C 3.2 °C 1018.2 hPa Calm     87 % 0.3 mm 0.0 W/m2 CLR
06:23 5.2 °C 3.2 °C 1018.2 hPa Calm     87 % 0.3 mm 0.0 W/m2 CLR
06:28 5.2 °C 3.2 °C 1018.2 hPa Calm     87 % 0.3 mm 0.0 W/m2 CLR
06:33 5.2 °C 3.2 °C 1018.2 hPa Calm     87 % 0.0 mm 0.0 W/m2 CLR
06:38 5.2 °C 3.2 °C 1018.2 hPa Calm     87 % 0.0 mm 0.0 W/m2 CLR
06:43 5.2 °C 3.1 °C 1018.2 hPa Calm     86 % 0.0 mm 0.0 W/m2 CLR
06:49 5.2 °C 3.1 °C 1018.2 hPa Calm     86 % 0.0 mm 0.0 W/m2 CLR
06:54 5.2 °C 2.8 °C 1018.2 hPa Calm     85 % 0.0 mm 0.0 W/m2 CLR
06:59 5.2 °C 2.8 °C 1018.2 hPa SW 3.7 km/h   85 % 0.0 mm 0.0 W/m2 CLR
07:04 5.2 °C 2.7 °C 1018.2 hPa Calm     84 % 0.0 mm 0.0 W/m2 CLR
07:09 5.1 °C 2.4 °C 1018.2 hPa WSW 11.1 km/h 11.1 km/h 83 % 0.0 mm 0.0 W/m2 CLR
07:14 5.2 °C 2.4 °C 1017.8 hPa West 12.9 km/h 12.9 km/h 82 % 0.0 mm 0.0 W/m2 CLR
07:19 5.2 °C 2.5 °C 1017.8 hPa West 16.7 km/h 16.7 km/h 83 % 0.0 mm 0.0 W/m2 CLR
07:24 5.1 °C 2.3 °C 1017.8 hPa WSW 13.0 km/h 13.0 km/h 82 % 0.0 mm 0.0 W/m2 CLR
07:29 5.1 °C 2.4 °C 1017.8 hPa WSW 9.3 km/h 9.3 km/h 83 % 0.0 mm 0.0 W/m2 CLR
07:34 5.1 °C 2.4 °C 1017.8 hPa SW 11.1 km/h 11.1 km/h 83 % 0.0 mm 0.0 W/m2 CLR
07:39 5.1 °C 2.1 °C 1017.8 hPa WSW 14.8 km/h 14.8 km/h 81 % 0.0 mm 0.0 W/m2 CLR
07:44 5.2 °C 2.2 °C 1018.2 hPa Calm     81 % 0.0 mm 0.0 W/m2 CLR
07:49 5.2 °C 2.2 °C 1018.2 hPa Calm     81 % 0.0 mm 0.0 W/m2 CLR
07:54 5.1 °C 2.3 °C 1018.2 hPa Calm     82 % 0.0 mm 0.0 W/m2 CLR
07:59 5.0 °C 2.3 °C 1018.5 hPa Calm     83 % 0.0 mm 0.0 W/m2 CLR
08:04 4.9 °C 2.2 °C 1018.5 hPa Calm     83 % 0.0 mm 0.0 W/m2 CLR
08:09 4.9 °C 2.1 °C 1018.5 hPa Calm     82 % 0.0 mm 0.0 W/m2 CLR
08:14 5.0 °C 2.0 °C 1018.5 hPa Calm     81 % 0.0 mm 0.0 W/m2 CLR
08:19 5.0 °C 2.0 °C 1018.5 hPa Calm     81 % 0.0 mm 0.0 W/m2 OVC
08:24 5.0 °C 1.8 °C 1018.5 hPa Calm     80 % 0.0 mm 0.0 W/m2 OVC
08:29 5.1 °C 1.9 °C 1018.5 hPa Calm     80 % 0.0 mm 0.0 W/m2 OVC
08:34 5.1 °C 1.9 °C 1018.5 hPa Calm     80 % 0.0 mm 0.0 W/m2 OVC
08:39 5.1 °C 1.9 °C 1018.5 hPa Calm     80 % 0.0 mm 5.0 W/m2 OVC
08:44 5.1 °C 1.8 °C 1018.5 hPa Calm     79 % 0.0 mm 14.0 W/m2 BKN
08:49 5.2 °C 1.9 °C 1018.5 hPa Calm     79 % 0.0 mm 25.0 W/m2 BKN
08:54 5.3 °C 1.9 °C 1018.5 hPa Calm     79 % 0.0 mm 40.0 W/m2 BKN
08:59 5.3 °C 1.8 °C 1018.5 hPa West 1.9 km/h   78 % 0.0 mm 60.0 W/m2 BKN
09:04 5.5 °C 1.8 °C 1018.5 hPa Calm     77 % 0.0 mm 69.0 W/m2 BKN
09:09 5.6 °C 1.8 °C 1018.5 hPa Calm     77 % 0.0 mm 72.0 W/m2 BKN
09:14 5.7 °C 1.8 °C 1018.5 hPa Calm     76 % 0.0 mm 76.0 W/m2 BKN
09:19 5.7 °C 1.8 °C 1018.5 hPa Calm     76 % 0.0 mm 77.0 W/m2 BKN
09:24 5.7 °C 2.0 °C 1018.5 hPa WNW 6.4 km/h 6.4 km/h 77 % 0.0 mm 81.0 W/m2 BKN
09:29 5.8 °C 1.9 °C 1018.8 hPa WNW 7.4 km/h 7.4 km/h 76 % 0.0 mm 69.0 W/m2 BKN
09:34 5.8 °C 1.9 °C 1018.8 hPa Calm     76 % 0.0 mm 42.0 W/m2 BKN
09:39 5.9 °C 1.8 °C 1018.8 hPa Calm     75 % 0.0 mm 42.0 W/m2 BKN
09:44 5.9 °C 1.8 °C 1018.8 hPa Calm     75 % 0.0 mm 53.0 W/m2 BKN
09:49 5.9 °C 1.8 °C 1019.2 hPa Calm     75 % 0.0 mm 53.0 W/m2 BKN
09:54 6.0 °C 1.9 °C 1019.2 hPa Calm     75 % 0.0 mm 49.0 W/m2 BKN
09:59 6.0 °C 1.9 °C 1019.2 hPa Calm     75 % 0.0 mm 76.0 W/m2 BKN
10:04 6.0 °C 1.9 °C 1019.2 hPa Calm     75 % 0.0 mm 70.0 W/m2 BKN
10:09 6.1 °C 1.9 °C 1019.2 hPa Calm     75 % 0.0 mm 58.0 W/m2 BKN
10:14 6.1 °C 2.0 °C 1019.2 hPa Calm     75 % 0.0 mm 93.0 W/m2 BKN
10:19 6.1 °C 2.0 °C 1019.2 hPa Calm     75 % 0.0 mm 91.0 W/m2 BKN
10:24 6.2 °C 2.1 °C 1019.2 hPa Calm     75 % 0.0 mm 111.0 W/m2 BKN
10:25 6.2 °C 2.1 °C 1019.2 hPa Calm     75 % 0.0 mm 114.0 W/m2 BKN
10:30 6.3 °C 2.2 °C 1019.2 hPa Calm     75 % 0.0 mm 165.0 W/m2 BKN
10:35 6.5 °C 2.0 °C 1018.8 hPa West 5.6 km/h 5.6 km/h 73 % 0.0 mm 167.0 W/m2 BKN
10:40 6.7 °C 2.0 °C 1018.8 hPa West 14.8 km/h 14.8 km/h 72 % 0.0 mm 158.0 W/m2 BKN
10:45 6.8 °C 1.9 °C 1018.8 hPa West 17.7 km/h 17.7 km/h 71 % 0.0 mm 111.0 W/m2 BKN
10:50 6.8 °C 1.9 °C 1018.8 hPa WNW 18.5 km/h 18.5 km/h 71 % 0.0 mm 137.0 W/m2 BKN
10:55 6.8 °C 1.9 °C 1018.8 hPa WNW 16.7 km/h 16.7 km/h 71 % 0.0 mm 142.0 W/m2 BKN
11:00 6.8 °C 1.7 °C 1018.8 hPa WNW 20.4 km/h 20.4 km/h 70 % 0.0 mm 195.0 W/m2 BKN
11:05 6.8 °C 1.9 °C 1019.2 hPa WNW 16.7 km/h 16.7 km/h 71 % 0.0 mm 146.0 W/m2 BKN
11:10 6.9 °C 2.0 °C 1019.2 hPa WNW 13.0 km/h 13.0 km/h 71 % 0.0 mm 139.0 W/m2 BKN
11:15 6.9 °C 2.0 °C 1019.2 hPa WNW 22.2 km/h 22.2 km/h 71 % 0.0 mm 221.0 W/m2 BKN
11:20 6.9 °C 2.0 °C 1019.2 hPa WNW 16.7 km/h 16.7 km/h 71 % 0.0 mm 202.0 W/m2 BKN
11:25 7.0 °C 2.1 °C 1019.2 hPa WNW 16.7 km/h 16.7 km/h 71 % 0.0 mm 151.0 W/m2 BKN
11:30 7.1 °C 2.3 °C 1019.2 hPa NW 11.1 km/h 11.1 km/h 72 % 0.0 mm 190.0 W/m2 BKN
11:35 7.1 °C 1.9 °C 1019.2 hPa WNW 22.2 km/h 22.2 km/h 70 % 0.0 mm 207.0 W/m2 BKN
11:40 7.1 °C 1.9 °C 1019.5 hPa WNW 16.7 km/h 16.7 km/h 70 % 0.0 mm 195.0 W/m2 BKN
11:45 7.1 °C 2.0 °C 1019.5 hPa WNW 7.4 km/h 7.4 km/h 70 % 0.0 mm 211.0 W/m2 BKN
11:50 7.2 °C 2.1 °C 1019.5 hPa WNW 14.8 km/h 14.8 km/h 70 % 0.0 mm 383.0 W/m2 BKN
11:55 7.3 °C 2.2 °C 1019.5 hPa NW 18.5 km/h 18.5 km/h 70 % 0.0 mm 209.0 W/m2 SCT
12:00 7.3 °C 2.2 °C 1019.5 hPa NW 16.7 km/h 16.7 km/h 70 % 0.0 mm 178.0 W/m2 BKN
12:05 7.3 °C 2.2 °C 1019.5 hPa NW 9.3 km/h 9.3 km/h 70 % 0.0 mm 151.0 W/m2 BKN
12:10 7.3 °C 2.2 °C 1019.5 hPa NW 14.8 km/h 14.8 km/h 70 % 0.0 mm 149.0 W/m2 BKN
12:15 7.2 °C 1.7 °C 1019.5 hPa NNW 14.8 km/h 14.8 km/h 68 % 0.0 mm 135.0 W/m2 BKN
12:20 7.2 °C 1.9 °C 1019.5 hPa NNW 11.1 km/h 11.1 km/h 69 % 0.0 mm 134.0 W/m2 BKN
12:25 7.1 °C 2.2 °C 1019.2 hPa North 11.1 km/h 11.1 km/h 71 % 0.0 mm 148.0 W/m2 BKN
12:30 6.9 °C 2.2 °C 1019.2 hPa North 11.3 km/h 11.3 km/h 72 % 0.0 mm 144.0 W/m2 BKN
12:35 6.8 °C 2.1 °C 1019.2 hPa North 11.1 km/h 11.1 km/h 72 % 0.0 mm 137.0 W/m2 BKN
12:40 6.8 °C 2.3 °C 1019.2 hPa North 7.4 km/h 7.4 km/h 73 % 0.0 mm 134.0 W/m2 BKN
12:45 6.8 °C 2.3 °C 1019.2 hPa North 9.3 km/h 9.3 km/h 73 % 0.0 mm 120.0 W/m2 BKN
12:50 6.8 °C 2.7 °C 1018.8 hPa North 4.8 km/h 4.8 km/h 75 % 0.0 mm 130.0 W/m2 BKN
12:55 6.8 °C 2.7 °C 1018.8 hPa NNW 9.7 km/h 9.7 km/h 75 % 0.0 mm 111.0 W/m2 BKN
13:00 6.7 °C 2.6 °C 1018.8 hPa NW 9.3 km/h 9.3 km/h 75 % 0.0 mm 111.0 W/m2 BKN
13:05 6.6 °C 2.7 °C 1018.8 hPa NW 5.6 km/h   76 % 0.0 mm 120.0 W/m2 BKN
13:10 6.6 °C 2.5 °C 1018.8 hPa Calm     75 % 0.0 mm 146.0 W/m2 BKN
13:16 6.7 °C 2.9 °C 1018.5 hPa NNW 12.9 km/h 12.9 km/h 77 % 0.0 mm 193.0 W/m2 BKN
13:21 6.8 °C 2.7 °C 1018.5 hPa NW 11.1 km/h 11.1 km/h 75 % 0.0 mm 156.0 W/m2 BKN
13:26 6.8 °C 2.9 °C 1018.5 hPa NW 9.3 km/h 9.3 km/h 76 % 0.0 mm 109.0 W/m2 BKN
13:31 6.8 °C 2.4 °C 1018.5 hPa WNW 9.7 km/h 9.7 km/h 74 % 0.0 mm 111.0 W/m2 BKN
13:36 6.8 °C 2.4 °C 1018.5 hPa NW 12.9 km/h 12.9 km/h 74 % 0.0 mm 121.0 W/m2 BKN
13:41 6.7 °C 2.2 °C 1018.2 hPa NW 13.0 km/h 13.0 km/h 73 % 0.0 mm 123.0 W/m2 BKN
13:46 6.7 °C 2.2 °C 1018.2 hPa NW 16.7 km/h 16.7 km/h 73 % 0.0 mm 123.0 W/m2 BKN
13:51 6.7 °C 2.2 °C 1018.2 hPa NW 18.5 km/h 18.5 km/h 73 % 0.0 mm 114.0 W/m2 BKN
13:56 6.7 °C 2.4 °C 1018.2 hPa NW 20.4 km/h 20.4 km/h 74 % 0.0 mm 139.0 W/m2 BKN
14:01 6.7 °C 2.4 °C 1018.2 hPa NW 17.7 km/h 17.7 km/h 74 % 0.0 mm 114.0 W/m2 BKN
14:06 6.7 °C 2.4 °C 1018.2 hPa NW 18.5 km/h 18.5 km/h 74 % 0.0 mm 100.0 W/m2 BKN
14:11 6.7 °C 2.4 °C 1018.2 hPa NW 18.5 km/h 18.5 km/h 74 % 0.0 mm 76.0 W/m2 BKN
14:16 6.7 °C 2.4 °C 1017.8 hPa NW 14.8 km/h 14.8 km/h 74 % 0.0 mm 81.0 W/m2 BKN
14:21 6.7 °C 2.4 °C 1017.8 hPa NW 14.8 km/h 14.8 km/h 74 % 0.0 mm 67.0 W/m2 BKN
14:26 6.8 °C 2.7 °C 1017.8 hPa WNW 11.3 km/h 11.3 km/h 75 % 0.0 mm 74.0 W/m2 BKN
14:31 6.8 °C 2.4 °C 1017.8 hPa WNW 16.7 km/h 16.7 km/h 74 % 0.0 mm 76.0 W/m2 BKN
14:36 6.8 °C 2.7 °C 1017.8 hPa WNW 9.3 km/h 9.3 km/h 75 % 0.0 mm 88.0 W/m2 BKN
14:41 6.9 °C 2.8 °C 1017.8 hPa Calm     75 % 0.0 mm 76.0 W/m2 BKN
14:46 6.9 °C 2.8 °C 1017.8 hPa Calm     75 % 0.0 mm 70.0 W/m2 BKN
14:51 7.0 °C 2.9 °C 1017.8 hPa West 9.3 km/h 9.3 km/h 75 % 0.0 mm 90.0 W/m2 BKN
14:56 7.0 °C 2.9 °C 1017.8 hPa WNW 13.0 km/h 13.0 km/h 75 % 0.0 mm 90.0 W/m2 BKN
15:01 7.1 °C 2.9 °C 1017.8 hPa WNW 17.7 km/h 17.7 km/h 75 % 0.0 mm 90.0 W/m2 BKN
15:06 7.1 °C 3.0 °C 1017.5 hPa WNW 14.8 km/h 14.8 km/h 75 % 0.0 mm 102.0 W/m2 BKN
15:11 7.1 °C 3.0 °C 1017.5 hPa WNW 7.4 km/h 7.4 km/h 75 % 0.0 mm 98.0 W/m2 BKN
15:16 7.2 °C 3.1 °C 1017.5 hPa Calm     75 % 0.0 mm 81.0 W/m2 BKN
15:21 7.3 °C 3.1 °C 1017.5 hPa WNW 16.7 km/h 16.7 km/h 75 % 0.0 mm 65.0 W/m2 BKN
15:26 7.3 °C 3.2 °C 1017.8 hPa WNW 16.7 km/h 16.7 km/h 75 % 0.0 mm 53.0 W/m2 BKN
15:31 7.3 °C 3.0 °C 1017.8 hPa Calm     74 % 0.0 mm 44.0 W/m2 BKN
15:36 7.4 °C 3.2 °C 1017.8 hPa Calm     75 % 0.0 mm 51.0 W/m2 BKN
15:41 7.4 °C 3.1 °C 1017.8 hPa Calm     74 % 0.0 mm 47.0 W/m2 BKN
15:46 7.4 °C 3.1 °C 1017.8 hPa Calm     74 % 0.0 mm 40.0 W/m2 BKN
15:51 7.5 °C 3.2 °C 1017.8 hPa Calm     74 % 0.0 mm 39.0 W/m2 BKN
15:56 7.5 °C 3.3 °C 1017.8 hPa Calm     75 % 0.0 mm 37.0 W/m2 BKN
16:01 7.5 °C 3.3 °C 1017.8 hPa Calm     75 % 0.0 mm 40.0 W/m2 BKN
16:06 7.5 °C 3.3 °C 1017.8 hPa NW 9.3 km/h 9.3 km/h 75 % 0.0 mm 35.0 W/m2 BKN
16:11 7.5 °C 3.3 °C 1018.2 hPa Calm     75 % 0.0 mm 33.0 W/m2 BKN
16:16 7.5 °C 3.2 °C 1018.2 hPa Calm     74 % 0.0 mm 32.0 W/m2 BKN
16:21 7.5 °C 3.2 °C 1017.8 hPa Calm     74 % 0.0 mm 33.0 W/m2 BKN
16:26 7.5 °C 3.6 °C 1018.2 hPa Calm     76 % 0.0 mm 28.0 W/m2 BKN
16:31 7.4 °C 3.8 °C 1018.2 hPa Calm     78 % 0.0 mm 30.0 W/m2 BKN
16:36 7.4 °C 3.8 °C 1018.2 hPa Calm     78 % 0.0 mm 26.0 W/m2 SCT
16:41 7.3 °C 3.6 °C 1018.2 hPa Calm     77 % 0.0 mm 19.0 W/m2 SCT
16:46 7.3 °C 3.9 °C 1018.2 hPa Calm     79 % 0.0 mm 19.0 W/m2 FEW
16:51 7.3 °C 4.1 °C 1018.2 hPa Calm     80 % 0.3 mm 19.0 W/m2 RA
16:56 7.1 °C 3.9 °C 1018.2 hPa Calm     80 % 0.3 mm 18.0 W/m2 BKN
17:01 7.1 °C 3.8 °C 1018.2 hPa Calm     80 % 0.3 mm 19.0 W/m2 CLR
17:06 7.0 °C 3.9 °C 1018.2 hPa Calm     81 % 0.3 mm 18.0 W/m2 OVC
17:11 7.0 °C 3.8 °C 1018.5 hPa Calm     80 % 0.3 mm 14.0 W/m2 OVC
17:16 7.0 °C 4.1 °C 1018.2 hPa Calm     82 % 0.3 mm 14.0 W/m2 OVC
17:21 6.9 °C 4.2 °C 1018.2 hPa Calm     83 % 0.3 mm 11.0 W/m2 OVC
17:26 6.8 °C 4.0 °C 1018.2 hPa Calm     82 % 0.3 mm 11.0 W/m2 OVC
17:31 6.8 °C 4.2 °C 1018.2 hPa Calm     83 % 0.3 mm 11.0 W/m2 OVC
17:36 6.7 °C 4.2 °C 1018.2 hPa Calm     84 % 0.3 mm 9.0 W/m2 OVC
17:41 6.7 °C 4.3 °C 1018.2 hPa Calm     85 % 0.3 mm 5.0 W/m2 OVC
17:46 6.6 °C 4.3 °C 1018.2 hPa Calm     85 % 0.3 mm 0.0 W/m2 OVC
17:51 6.6 °C 4.3 °C 1018.2 hPa Calm     85 % 0.0 mm 0.0 W/m2 OVC
17:56 6.7 °C 4.2 °C 1018.2 hPa Calm     84 % 0.0 mm 0.0 W/m2 OVC
18:01 6.8 °C 4.3 °C 1018.5 hPa Calm     84 % 0.0 mm 0.0 W/m2 OVC
18:06 6.8 °C 4.3 °C 1018.5 hPa Calm     84 % 0.0 mm 0.0 W/m2 CLR
18:11 6.8 °C 4.3 °C 1018.5 hPa Calm     84 % 0.0 mm 0.0 W/m2 CLR
18:16 6.8 °C 4.3 °C 1018.5 hPa Calm     84 % 0.0 mm 0.0 W/m2 CLR
18:21 6.8 °C 4.1 °C 1018.8 hPa Calm     83 % 0.0 mm 0.0 W/m2 CLR
18:26 6.8 °C 4.1 °C 1018.5 hPa Calm     83 % 0.0 mm 0.0 W/m2 CLR
18:31 6.8 °C 3.9 °C 1018.8 hPa Calm     82 % 0.0 mm 0.0 W/m2 CLR
18:36 6.8 °C 4.3 °C 1018.8 hPa Calm     84 % 0.0 mm 0.0 W/m2 CLR
18:41 6.6 °C 3.9 °C 1018.8 hPa Calm     83 % 0.3 mm 0.0 W/m2 RA
18:46 6.6 °C 4.1 °C 1018.8 hPa Calm     84 % 0.3 mm 0.0 W/m2 CLR
18:51 6.5 °C 4.0 °C 1018.8 hPa Calm     84 % 0.3 mm 0.0 W/m2 CLR
18:56 6.4 °C 3.9 °C 1018.8 hPa Calm     84 % 0.3 mm 0.0 W/m2 CLR
19:01 6.4 °C 4.1 °C 1018.8 hPa Calm     85 % 0.3 mm 0.0 W/m2 CLR
19:06 6.3 °C 4.0 °C 1018.8 hPa Calm     85 % 0.3 mm 0.0 W/m2 CLR
19:11 6.2 °C 4.2 °C 1018.8 hPa Calm     87 % 0.3 mm 0.0 W/m2 CLR
19:16 6.1 °C 4.1 °C 1019.2 hPa Calm     87 % 0.3 mm 0.0 W/m2 CLR
19:21 6.1 °C 4.1 °C 1019.2 hPa Calm     87 % 0.3 mm 0.0 W/m2 CLR
19:26 6.2 °C 4.0 °C 1019.2 hPa Calm     86 % 0.5 mm 0.0 W/m2 RA
19:31 6.2 °C 4.0 °C 1019.2 hPa Calm     86 % 0.5 mm 0.0 W/m2 CLR
19:36 6.2 °C 4.1 °C 1019.2 hPa Calm     86 % 0.5 mm 0.0 W/m2 CLR
19:41 6.1 °C 4.1 °C 1019.2 hPa Calm     87 % 0.3 mm 0.0 W/m2 CLR
19:46 5.9 °C 4.1 °C 1019.2 hPa Calm     88 % 0.5 mm 0.0 W/m2 RA
19:51 5.8 °C 4.1 °C 1019.2 hPa Calm     89 % 0.5 mm 0.0 W/m2 CLR
19:56 5.7 °C 4.1 °C 1019.2 hPa Calm     89 % 0.5 mm 0.0 W/m2 CLR
20:01 5.7 °C 4.2 °C 1019.2 hPa Calm     90 % 0.5 mm 0.0 W/m2 CLR
20:06 5.6 °C 4.1 °C 1019.2 hPa Calm     90 % 0.5 mm 0.0 W/m2 CLR
20:12 5.6 °C 4.1 °C 1019.2 hPa Calm     90 % 0.5 mm 0.0 W/m2 CLR
20:17 5.6 °C 4.1 °C 1019.2 hPa Calm     90 % 0.5 mm 0.0 W/m2 CLR
20:22 5.7 °C 4.1 °C 1019.2 hPa Calm     89 % 0.5 mm 0.0 W/m2 CLR
20:27 5.8 °C 4.2 °C 1019.2 hPa Calm     89 % 0.3 mm 0.0 W/m2 CLR
20:32 5.8 °C 4.1 °C 1019.2 hPa Calm     89 % 0.3 mm 0.0 W/m2 CLR
20:37 5.7 °C 4.2 °C 1019.5 hPa Calm     90 % 0.3 mm 0.0 W/m2 CLR
20:42 5.7 °C 4.2 °C 1019.5 hPa Calm     90 % 0.3 mm 0.0 W/m2 CLR
20:47 5.8 °C 4.1 °C 1019.9 hPa Calm     89 % 0.0 mm 0.0 W/m2 CLR
20:52 5.8 °C 4.1 °C 1019.9 hPa Calm     89 % 0.0 mm 0.0 W/m2 CLR
20:57 5.8 °C 4.1 °C 1019.9 hPa Calm     89 % 0.0 mm 0.0 W/m2 CLR
21:02 5.8 °C 4.1 °C 1019.9 hPa Calm     89 % 0.0 mm 0.0 W/m2 CLR
21:07 5.7 °C 4.1 °C 1019.9 hPa Calm     89 % 0.3 mm 0.0 W/m2 RA
21:12 5.7 °C 4.1 °C 1019.9 hPa Calm     89 % 0.5 mm 0.0 W/m2 RA
21:17 5.7 °C 4.1 °C 1019.9 hPa Calm     89 % 0.5 mm 0.0 W/m2
21:22 5.7 °C 4.1 °C 1019.9 hPa NW 11.3 km/h 11.3 km/h 89 % 0.5 mm 0.0 W/m2 RA
21:27 5.8 °C 3.9 °C 1019.9 hPa WNW 11.1 km/h 11.1 km/h 88 % 0.5 mm 0.0 W/m2
21:32 5.8 °C 3.9 °C 1019.9 hPa WNW 9.3 km/h 9.3 km/h 88 % 0.5 mm 0.0 W/m2 CLR
21:37 5.8 °C 3.8 °C 1019.5 hPa WNW 9.7 km/h 9.7 km/h 87 % 0.5 mm 0.0 W/m2 CLR
21:42 5.8 °C 3.8 °C 1019.5 hPa WNW 18.5 km/h 18.5 km/h 87 % 0.5 mm 0.0 W/m2 CLR
21:47 5.8 °C 3.7 °C 1019.5 hPa WNW 18.5 km/h 18.5 km/h 86 % 0.5 mm 0.0 W/m2 CLR
21:52 5.9 °C 3.7 °C 1019.5 hPa WNW 11.1 km/h 11.1 km/h 86 % 0.5 mm 0.0 W/m2 CLR
21:57 5.9 °C 3.7 °C 1019.9 hPa WNW 11.1 km/h 11.1 km/h 86 % 0.5 mm 0.0 W/m2 CLR
22:02 5.9 °C 3.8 °C 1019.9 hPa WNW 9.3 km/h 9.3 km/h 86 % 0.5 mm 0.0 W/m2 CLR
22:07 5.9 °C 3.7 °C 1019.9 hPa WNW 6.4 km/h 6.4 km/h 86 % 0.5 mm 0.0 W/m2 CLR
22:12 5.9 °C 3.8 °C 1019.9 hPa Calm     86 % 0.5 mm 0.0 W/m2 RA
22:17 5.9 °C 3.7 °C 1019.9 hPa West 11.1 km/h 11.1 km/h 86 % 0.5 mm 0.0 W/m2 CLR
22:22 5.9 °C 3.7 °C 1020.2 hPa WNW 9.7 km/h 9.7 km/h 86 % 0.3 mm 0.0 W/m2 CLR
22:27 5.9 °C 3.8 °C 1019.9 hPa WNW 9.3 km/h 9.3 km/h 86 % 0.3 mm 0.0 W/m2 CLR
22:32 5.9 °C 3.8 °C 1019.9 hPa WNW 7.4 km/h 7.4 km/h 86 % 0.3 mm 0.0 W/m2 CLR
22:37 5.8 °C 3.7 °C 1019.9 hPa WNW 13.0 km/h 13.0 km/h 86 % 0.3 mm 0.0 W/m2 CLR
22:42 5.9 °C 3.7 °C 1020.2 hPa WNW 11.1 km/h 11.1 km/h 86 % 0.5 mm 0.0 W/m2 RA
22:47 5.8 °C 3.8 °C 1020.2 hPa WNW 9.7 km/h 9.7 km/h 87 % 0.5 mm 0.0 W/m2 CLR
22:52 5.7 °C 3.7 °C 1019.9 hPa WNW 13.0 km/h 13.0 km/h 87 % 0.5 mm 0.0 W/m2 CLR
22:57 5.7 °C 3.7 °C 1020.2 hPa WNW 14.8 km/h 14.8 km/h 87 % 0.5 mm 0.0 W/m2 CLR
23:02 5.7 °C 3.7 °C 1019.9 hPa WNW 14.5 km/h 14.5 km/h 87 % 0.5 mm 0.0 W/m2 CLR
23:07 5.8 °C 3.6 °C 1020.2 hPa WNW 16.7 km/h 16.7 km/h 86 % 0.5 mm 0.0 W/m2 CLR
23:12 5.8 °C 3.6 °C 1020.2 hPa WNW 14.8 km/h 14.8 km/h 86 % 0.5 mm 0.0 W/m2 CLR
23:17 5.8 °C 3.8 °C 1020.2 hPa WNW 14.8 km/h 14.8 km/h 87 % 0.5 mm 0.0 W/m2 CLR
23:22 5.7 °C 3.6 °C 1020.2 hPa WNW 13.0 km/h 13.0 km/h 86 % 0.5 mm 0.0 W/m2 CLR
23:27 5.8 °C 3.7 °C 1019.9 hPa WNW 19.3 km/h 19.3 km/h 86 % 0.5 mm 0.0 W/m2 CLR
23:32 5.8 °C 3.5 °C 1019.9 hPa WNW 18.5 km/h 18.5 km/h 85 % 0.5 mm 0.0 W/m2 CLR
23:37 5.9 °C 3.6 °C 1020.2 hPa WNW 20.4 km/h 20.4 km/h 85 % 0.5 mm 0.0 W/m2 CLR
23:42 5.9 °C 3.6 °C 1020.2 hPa WNW 18.5 km/h 18.5 km/h 85 % 0.0 mm 0.0 W/m2 CLR
23:47 5.8 °C 3.5 °C 1019.9 hPa WNW 24.1 km/h 24.1 km/h 85 % 0.0 mm 0.0 W/m2 CLR
23:52 5.8 °C 3.5 °C 1019.9 hPa WNW 24.1 km/h 24.1 km/h 85 % 0.0 mm 0.0 W/m2 CLR
23:57 5.8 °C 3.5 °C 1019.9 hPa WNW 22.2 km/h 22.2 km/h 85 % 0.0 mm 0.0 W/m2 CLR
Lo Temps de Massalio
Compliments of Weather Underground - 1.25 mb